Time;durP1;ratioP1;P1;durP2;ratioP2;P2;SDS_P1;SDS_P2;PMS_P1;PMS_P2;Temp;Humidity;BMP_temperature;BMP_pressure;BME280_temperature;BME280_humidity;BME280_pressure;Samples;Min_cycle;Max_cycle;Signal;HPM_P1;HPM_P2
2022/08/23 00:01:31;;;;;;;;;;;;;;;21.24;25.18;95457.97;4995522;28;19921;-68
2022/08/23 00:03:57;;;;;;;;;;;;;;;21.31;24.90;95463.25;4995199;28;19968;-68
2022/08/23 00:06:22;;;;;;;;;;;;;;;21.23;24.79;95457.16;4994772;28;20012;-68
2022/08/23 00:08:48;;;;;;;;;;;;;;;21.25;24.96;95457.72;4994332;28;19922;-68
2022/08/23 00:11:32;;;;;;;;;;;;;;;21.17;25.01;95460.88;4997710;28;19917;-68
2022/08/23 00:13:58;;;;;;;;;;;;;;;20.99;25.25;95459.28;4995135;28;20453;-68
2022/08/23 00:16:23;;;;;;;;;;;;;;;20.96;25.97;95457.88;5000612;28;19914;-68
2022/08/23 00:18:48;;;;;;;;;;;;;;;20.73;25.73;95459.72;4998777;28;19917;-68
2022/08/23 00:21:13;;;;;;;;;;;;;;;20.38;27.64;95460.75;4999316;28;19925;-68
2022/08/23 00:23:38;;;;;;;;;;;;;;;20.56;27.31;95467.00;4996270;28;19932;-68
2022/08/23 00:26:04;;;;;;;;;;;;;;;20.58;26.08;95465.69;5004012;28;20191;-68
2022/08/23 00:28:30;;;;;;;;;;;;;;;20.53;26.44;95465.59;5003914;28;20448;-68
2022/08/23 00:30:56;;;;;;;;;;;;;;;20.36;26.87;95471.81;5003679;28;20169;-68
2022/08/23 00:33:21;;;;;;;;;;;;;;;20.02;27.96;95468.25;5004116;28;19953;-68
2022/08/23 00:35:47;;;;;;;;;;;;;;;20.15;26.60;95467.94;4997883;28;20014;-68
2022/08/23 00:38:12;;;;;;;;;;;;;;;20.27;26.52;95476.00;5000701;28;19932;-68
2022/08/23 00:40:37;;;;;;;;;;;;;;;20.25;26.47;95467.31;5002740;28;20283;-68
2022/08/23 00:48:37;;;;;;;;;;;;;;;19.94;27.09;95470.25;4998002;28;19980;-68
2022/08/23 00:51:20;;;;;;;;;;;;;;;19.90;27.28;95463.69;4982164;28;20295;-68
2022/08/23 00:53:46;;;;;;;;;;;;;;;19.83;27.34;95463.84;4981775;28;20467;-68
2022/08/23 00:56:12;;;;;;;;;;;;;;;19.69;27.83;95468.69;5001124;28;20020;-68
2022/08/23 00:58:37;;;;;;;;;;;;;;;19.59;27.91;95461.22;4985207;28;20004;-68
2022/08/23 01:01:02;;;;;;;;;;;;;;;19.58;27.77;95464.97;5000718;28;19921;-68
2022/08/23 01:03:28;;;;;;;;;;;;;;;19.60;27.35;95464.75;4982861;28;20440;-68
2022/08/23 01:05:54;;;;;;;;;;;;;;;19.61;27.45;95468.28;4989122;28;19937;-68
2022/08/23 01:08:19;;;;;;;;;;;;;;;19.49;28.10;95469.13;4999926;28;19926;-68
2022/08/23 01:10:46;;;;;;;;;;;;;;;19.50;27.72;95464.53;4999654;28;19925;-68
2022/08/23 01:13:13;;;;;;;;;;;;;;;19.44;27.79;95463.59;4983252;28;19925;-68
2022/08/23 01:15:40;;;;;;;;;;;;;;;19.32;27.96;95469.88;5002058;28;19961;-68
2022/08/23 01:18:07;;;;;;;;;;;;;;;19.35;28.39;95468.59;4989359;28;19930;-68
2022/08/23 01:20:42;;;;;;;;;;;;;;;19.24;28.98;95467.50;4981703;28;20398;-68
2022/08/23 01:23:17;;;;;;;;;;;;;;;19.20;28.46;95466.34;4964002;28;19914;-68
2022/08/23 01:25:43;;;;;;;;;;;;;;;19.20;28.32;95463.63;4999944;28;19921;-68
2022/08/23 01:28:08;;;;;;;;;;;;;;;19.14;28.61;95464.59;5002094;28;20373;-68
2022/08/23 01:30:34;;;;;;;;;;;;;;;19.04;29.08;95466.00;4998782;28;19976;-68
2022/08/23 01:33:00;;;;;;;;;;;;;;;19.01;29.25;95469.19;5000978;28;20410;-68
2022/08/23 01:35:29;;;;;;;;;;;;;;;18.97;29.04;95462.63;4998714;28;19941;-68
2022/08/23 01:37:55;;;;;;;;;;;;;;;18.91;29.51;95469.78;5000670;28;19925;-68
2022/08/23 01:40:20;;;;;;;;;;;;;;;18.82;29.43;95472.00;5002098;28;19918;-68
2022/08/23 01:42:46;;;;;;;;;;;;;;;18.78;29.28;95470.00;5002560;28;19924;-68
2022/08/23 01:45:11;;;;;;;;;;;;;;;18.65;29.59;95471.06;5000103;28;19929;-68
2022/08/23 01:47:36;;;;;;;;;;;;;;;18.66;30.59;95467.31;4998665;28;19929;-68
2022/08/23 01:50:02;;;;;;;;;;;;;;;18.54;30.06;95465.41;5000929;28;19957;-68
2022/08/23 01:52:27;;;;;;;;;;;;;;;18.41;30.68;95469.13;5002699;28;19971;-68
2022/08/23 01:54:53;;;;;;;;;;;;;;;18.35;29.95;95475.44;4998243;28;19926;-67
2022/08/23 01:57:18;;;;;;;;;;;;;;;18.35;30.11;95470.06;5002138;28;20040;-67
2022/08/23 01:59:43;;;;;;;;;;;;;;;18.34;30.11;95473.81;4999677;28;19929;-67
2022/08/23 02:02:09;;;;;;;;;;;;;;;18.29;30.47;95469.09;4983406;28;19969;-67
2022/08/23 02:04:34;;;;;;;;;;;;;;;18.22;30.81;95476.47;4999025;28;20331;-67
2022/08/23 02:06:59;;;;;;;;;;;;;;;18.23;30.25;95470.03;4999282;28;19956;-67
2022/08/23 02:09:24;;;;;;;;;;;;;;;18.22;29.87;95481.84;4996131;28;19961;-67
2022/08/23 02:11:50;;;;;;;;;;;;;;;18.11;30.26;95478.09;4998786;28;19929;-66
2022/08/23 02:14:17;;;;;;;;;;;;;;;18.09;30.39;95479.38;4999682;28;20373;-67
2022/08/23 02:16:44;;;;;;;;;;;;;;;18.03;30.69;95475.72;4998197;28;19913;-67
2022/08/23 02:19:10;;;;;;;;;;;;;;;17.96;31.30;95475.81;4999927;28;20275;-67
2022/08/23 02:21:35;;;;;;;;;;;;;;;17.87;31.51;95478.00;4997575;28;20333;-67
2022/08/23 02:24:05;;;;;;;;;;;;;;;17.86;31.70;95487.13;4997424;28;19964;-67
2022/08/23 02:26:30;;;;;;;;;;;;;;;17.75;31.22;95479.81;4998981;28;19926;-67
2022/08/23 02:28:56;;;;;;;;;;;;;;;17.74;31.10;95473.59;4980107;28;20035;-67
2022/08/23 02:31:21;;;;;;;;;;;;;;;17.76;31.22;95478.75;4998683;28;19944;-67
2022/08/23 02:33:47;;;;;;;;;;;;;;;17.73;31.33;95471.94;5001227;28;19928;-67
2022/08/23 02:36:12;;;;;;;;;;;;;;;17.69;31.46;95486.91;5000446;28;19979;-67
2022/08/23 02:38:38;;;;;;;;;;;;;;;17.64;31.26;95479.50;4999581;28;19931;-67
2022/08/23 02:41:03;;;;;;;;;;;;;;;17.61;31.43;95474.56;4994392;28;19933;-67
2022/08/23 02:43:28;;;;;;;;;;;;;;;17.61;31.56;95479.16;4997044;28;20228;-67
2022/08/23 02:45:54;;;;;;;;;;;;;;;17.52;31.52;95479.47;4997216;28;19926;-66
2022/08/23 02:48:19;;;;;;;;;;;;;;;17.43;31.82;95472.72;4997235;28;19930;-67
2022/08/23 02:50:45;;;;;;;;;;;;;;;17.43;32.01;95480.81;4998694;28;20306;-67
2022/08/23 02:53:10;;;;;;;;;;;;;;;17.46;31.52;95480.34;4996064;28;19933;-67
2022/08/23 02:55:35;;;;;;;;;;;;;;;17.39;31.88;95482.31;4983188;28;19925;-66
2022/08/23 02:58:01;;;;;;;;;;;;;;;17.32;32.24;95482.38;4998289;28;19925;-67
2022/08/23 03:00:26;;;;;;;;;;;;;;;17.25;32.07;95479.78;4995750;28;19931;-66
2022/08/23 03:02:51;;;;;;;;;;;;;;;17.25;32.07;95485.16;5000110;28;20021;-67
2022/08/23 03:05:16;;;;;;;;;;;;;;;17.17;33.01;95481.94;4998431;28;19922;-67
2022/08/23 03:07:42;;;;;;;;;;;;;;;17.14;32.64;95485.91;4999541;28;19929;-66
2022/08/23 03:10:08;;;;;;;;;;;;;;;16.98;32.88;95484.56;4997951;28;20343;-66
2022/08/23 03:12:33;;;;;;;;;;;;;;;16.98;33.18;95480.03;4999555;28;20219;-66
2022/08/23 03:14:58;;;;;;;;;;;;;;;16.95;33.32;95479.63;5001620;28;19913;-67
2022/08/23 03:17:23;;;;;;;;;;;;;;;16.91;34.15;95487.34;4997177;28;19933;-66
2022/08/23 03:19:51;;;;;;;;;;;;;;;16.87;33.63;95486.94;4999848;28;19921;-66
2022/08/23 03:22:16;;;;;;;;;;;;;;;16.81;34.36;95484.31;4995210;28;20479;-67
2022/08/23 03:24:41;;;;;;;;;;;;;;;16.79;33.70;95489.13;4993183;28;20015;-67
2022/08/23 03:27:07;;;;;;;;;;;;;;;16.76;33.83;95483.13;5001214;28;20362;-67
2022/08/23 03:29:32;;;;;;;;;;;;;;;16.75;34.18;95481.47;4996275;28;19952;-66
2022/08/23 03:31:58;;;;;;;;;;;;;;;16.69;33.46;95479.66;5000090;28;19913;-66
2022/08/23 03:34:23;;;;;;;;;;;;;;;16.67;34.10;95483.63;4996355;28;19928;-66
2022/08/23 03:36:48;;;;;;;;;;;;;;;16.59;33.99;95484.75;4997162;28;20021;-66
2022/08/23 03:39:13;;;;;;;;;;;;;;;16.55;34.35;95488.91;4998336;28;19917;-66
2022/08/23 03:41:39;;;;;;;;;;;;;;;16.47;34.45;95490.81;4998347;28;20020;-66
2022/08/23 03:44:04;;;;;;;;;;;;;;;16.41;34.70;95480.13;4980144;28;20016;-66
2022/08/23 03:46:29;;;;;;;;;;;;;;;16.29;34.39;95480.81;4998346;28;20011;-66
2022/08/23 03:48:55;;;;;;;;;;;;;;;16.25;34.72;95487.66;4996817;28;19968;-66
2022/08/23 03:51:21;;;;;;;;;;;;;;;16.13;35.07;95476.78;5004014;28;19929;-67
2022/08/23 03:53:46;;;;;;;;;;;;;;;16.18;35.16;95495.72;4980907;28;20320;-66
2022/08/23 03:56:20;;;;;;;;;;;;;;;16.16;34.85;95489.78;5003661;28;20203;-66
2022/08/23 03:58:45;;;;;;;;;;;;;;;16.16;35.21;95492.47;5001175;28;19925;-66
2022/08/23 04:01:10;;;;;;;;;;;;;;;16.02;35.69;95491.72;5001512;28;19987;-66
2022/08/23 04:03:36;;;;;;;;;;;;;;;15.91;36.67;95495.91;5004347;28;19972;-66
2022/08/23 04:06:01;;;;;;;;;;;;;;;15.86;36.93;95493.03;5003646;28;19974;-67
2022/08/23 04:08:27;;;;;;;;;;;;;;;15.79;36.79;95493.09;5003088;28;20371;-67
2022/08/23 04:10:52;;;;;;;;;;;;;;;15.88;36.22;95491.78;5002122;28;19934;-66
2022/08/23 04:13:17;;;;;;;;;;;;;;;15.91;35.58;95498.59;5002413;28;19951;-67
2022/08/23 04:15:42;;;;;;;;;;;;;;;15.90;35.63;95498.81;4997996;28;20020;-66
2022/08/23 04:18:08;;;;;;;;;;;;;;;15.93;35.53;95498.38;4999001;28;19925;-66
2022/08/23 04:20:33;;;;;;;;;;;;;;;15.91;35.24;95503.16;5001647;28;19959;-66
2022/08/23 04:22:58;;;;;;;;;;;;;;;15.88;35.51;95504.41;4999818;28;19927;-66
2022/08/23 04:25:24;;;;;;;;;;;;;;;15.82;35.71;95508.78;5004025;28;19929;-66
2022/08/23 04:27:49;;;;;;;;;;;;;;;15.77;35.81;95507.75;5003148;28;19922;-67
2022/08/23 04:30:14;;;;;;;;;;;;;;;15.79;35.85;95516.41;5001482;28;20532;-66
2022/08/23 04:32:40;;;;;;;;;;;;;;;15.80;35.91;95520.72;4985985;28;19913;-66
2022/08/23 04:35:05;;;;;;;;;;;;;;;15.84;35.76;95514.72;4999290;28;20352;-66
2022/08/23 04:37:30;;;;;;;;;;;;;;;15.83;35.66;95520.31;5003643;28;19932;-66
2022/08/23 04:42:39;;;;;;;;;;;;;;;15.88;35.92;95526.69;5001394;28;20371;-66
2022/08/23 04:45:05;;;;;;;;;;;;;;;15.83;36.20;95521.16;5002143;28;20012;-66
2022/08/23 04:47:30;;;;;;;;;;;;;;;15.91;35.85;95522.75;5002358;28;20302;-67
2022/08/23 04:49:56;;;;;;;;;;;;;;;15.91;35.89;95522.75;5002947;28;20509;-67
2022/08/23 04:52:21;;;;;;;;;;;;;;;15.91;35.97;95530.78;4999711;28;20311;-67
2022/08/23 04:54:46;;;;;;;;;;;;;;;15.97;35.84;95529.13;5001331;28;20146;-67
2022/08/23 04:57:11;;;;;;;;;;;;;;;15.96;35.79;95536.38;4999160;28;20430;-67
2022/08/23 04:59:37;;;;;;;;;;;;;;;16.08;35.87;95538.38;5000264;28;20001;-67
2022/08/23 05:02:02;;;;;;;;;;;;;;;16.07;35.92;95542.06;4999458;28;20092;-68
2022/08/23 05:04:27;;;;;;;;;;;;;;;16.12;36.07;95542.28;5002253;28;19949;-68
2022/08/23 05:06:52;;;;;;;;;;;;;;;16.17;35.64;95546.97;5000625;28;20287;-67
2022/08/23 05:09:18;;;;;;;;;;;;;;;16.22;35.71;95539.91;4999924;28;19961;-67
2022/08/23 05:11:43;;;;;;;;;;;;;;;16.26;35.55;95543.81;5001374;28;19940;-67
2022/08/23 05:14:08;;;;;;;;;;;;;;;16.37;35.28;95546.88;5000433;28;19921;-68
2022/08/23 05:16:33;;;;;;;;;;;;;;;16.42;35.55;95547.06;4998587;28;19929;-68
2022/08/23 05:18:59;;;;;;;;;;;;;;;16.45;35.67;95557.38;4986144;28;19913;-68
2022/08/23 05:21:24;;;;;;;;;;;;;;;16.50;35.46;95556.72;4998353;28;20201;-68
2022/08/23 05:23:50;;;;;;;;;;;;;;;16.63;35.25;95555.81;5000835;28;19923;-68
2022/08/23 05:26:15;;;;;;;;;;;;;;;16.74;35.15;95552.41;4994258;28;19921;-68
2022/08/23 05:28:43;;;;;;;;;;;;;;;16.85;34.95;95558.09;5000497;28;20370;-69
2022/08/23 05:31:12;;;;;;;;;;;;;;;16.99;34.75;95559.66;4999353;28;19909;-68
2022/08/23 05:33:38;;;;;;;;;;;;;;;17.12;34.31;95552.53;4999437;28;19948;-68
2022/08/23 05:36:03;;;;;;;;;;;;;;;17.19;34.62;95561.34;4983676;28;19917;-68
2022/08/23 05:38:29;;;;;;;;;;;;;;;17.28;34.37;95562.69;4985653;28;19956;-68
2022/08/23 05:40:56;;;;;;;;;;;;;;;17.41;34.32;95560.94;5002569;28;20113;-68
2022/08/23 05:43:21;;;;;;;;;;;;;;;17.56;34.07;95565.13;4997759;28;19918;-68
2022/08/23 05:45:46;;;;;;;;;;;;;;;17.67;34.25;95569.75;4996329;28;20025;-68
2022/08/23 05:48:12;;;;;;;;;;;;;;;17.84;33.78;95563.78;4981972;28;19929;-68
2022/08/23 05:50:37;;;;;;;;;;;;;;;17.95;33.36;95565.72;5000106;28;19972;-68
2022/08/23 05:53:03;;;;;;;;;;;;;;;18.10;33.43;95561.81;4997107;28;20000;-69
2022/08/23 05:55:28;;;;;;;;;;;;;;;18.17;32.94;95567.94;5001029;28;19968;-69
2022/08/23 05:57:53;;;;;;;;;;;;;;;18.33;32.98;95577.25;5000898;28;19971;-69
2022/08/23 06:00:18;;;;;;;;;;;;;;;18.44;32.77;95575.66;4996944;28;19925;-69
2022/08/23 06:02:44;;;;;;;;;;;;;;;18.63;32.51;95581.00;4999235;28;19924;-69
2022/08/23 06:05:09;;;;;;;;;;;;;;;18.66;32.60;95583.25;4999550;28;19925;-69
2022/08/23 06:07:35;;;;;;;;;;;;;;;18.88;32.32;95582.69;5002003;28;19929;-69
2022/08/23 06:10:00;;;;;;;;;;;;;;;19.12;31.88;95583.53;4989571;28;20643;-69
2022/08/23 06:12:25;;;;;;;;;;;;;;;19.20;32.16;95590.44;4995510;28;20309;-69
2022/08/23 06:14:51;;;;;;;;;;;;;;;19.33;31.81;95581.34;5000454;28;20298;-69
2022/08/23 06:17:16;;;;;;;;;;;;;;;19.44;31.84;95583.22;4999739;28;19926;-69
2022/08/23 06:19:41;;;;;;;;;;;;;;;19.70;31.30;95582.94;4998235;28;20000;-69
2022/08/23 06:22:06;;;;;;;;;;;;;;;19.79;30.60;95581.50;4997574;28;20490;-69
2022/08/23 06:24:32;;;;;;;;;;;;;;;19.90;30.65;95587.13;4996962;28;19922;-69
2022/08/23 06:26:57;;;;;;;;;;;;;;;19.91;30.43;95588.75;4999963;28;19929;-69
2022/08/23 06:29:23;;;;;;;;;;;;;;;20.09;30.37;95591.31;4995882;28;20342;-69
2022/08/23 06:31:48;;;;;;;;;;;;;;;20.35;29.86;95591.81;4997783;28;19984;-69
2022/08/23 06:34:21;;;;;;;;;;;;;;;20.38;29.49;95592.38;5002712;28;19951;-69
2022/08/23 06:36:51;;;;;;;;;;;;;;;20.45;29.42;95593.06;4998437;28;19926;-69
2022/08/23 06:39:16;;;;;;;;;;;;;;;20.65;29.33;95592.66;4999788;28;19992;-69
2022/08/23 06:41:42;;;;;;;;;;;;;;;20.68;29.16;95603.00;4997001;28;20399;-69
2022/08/23 06:44:07;;;;;;;;;;;;;;;20.82;29.01;95600.78;5001956;28;20333;-69
2022/08/23 06:46:32;;;;;;;;;;;;;;;21.07;28.98;95599.56;4994925;28;19938;-69
2022/08/23 06:48:59;;;;;;;;;;;;;;;21.15;28.60;95594.81;4994197;28;19926;-69
2022/08/23 06:51:24;;;;;;;;;;;;;;;21.38;28.53;95596.53;4997530;28;19944;-69
2022/08/23 06:53:53;;;;;;;;;;;;;;;21.51;28.22;95609.72;4996679;28;20367;-69
2022/08/23 06:56:19;;;;;;;;;;;;;;;21.77;27.92;95599.25;4996386;28;19936;-69
2022/08/23 06:58:44;;;;;;;;;;;;;;;21.86;27.91;95604.22;5001741;28;20354;-69
2022/08/23 07:01:17;;;;;;;;;;;;;;;21.95;27.02;95597.31;4995388;28;20166;-69
2022/08/23 07:03:42;;;;;;;;;;;;;;;21.92;27.40;95602.44;4984177;28;19925;-69
2022/08/23 07:06:08;;;;;;;;;;;;;;;22.14;26.81;95599.72;4998912;28;19917;-69
2022/08/23 07:08:33;;;;;;;;;;;;;;;22.36;26.89;95604.28;5001544;28;19921;-69
2022/08/23 07:10:58;;;;;;;;;;;;;;;22.34;26.94;95606.44;5000537;28;19966;-69
2022/08/23 07:13:24;;;;;;;;;;;;;;;22.37;26.56;95608.66;5000774;28;19917;-69
2022/08/23 07:15:49;;;;;;;;;;;;;;;22.56;26.64;95609.16;4997782;28;19948;-70
2022/08/23 07:18:14;;;;;;;;;;;;;;;22.75;26.54;95611.50;5001529;28;19921;-69
2022/08/23 07:20:40;;;;;;;;;;;;;;;22.97;26.06;95610.63;5000406;28;19925;-69
2022/08/23 07:23:05;;;;;;;;;;;;;;;23.09;26.16;95616.69;4998100;28;19913;-69
2022/08/23 07:25:31;;;;;;;;;;;;;;;22.89;25.92;95620.88;4997047;28;20430;-69
2022/08/23 07:27:56;;;;;;;;;;;;;;;23.03;25.67;95620.41;4997784;28;19941;-69
2022/08/23 07:30:21;;;;;;;;;;;;;;;23.23;25.28;95630.66;4998629;28;19929;-69
2022/08/23 07:32:47;;;;;;;;;;;;;;;23.36;24.90;95621.25;5001132;28;19922;-69
2022/08/23 07:35:12;;;;;;;;;;;;;;;23.34;24.64;95631.56;4996741;28;19918;-69
2022/08/23 07:37:38;;;;;;;;;;;;;;;23.50;24.44;95628.94;4997276;28;19926;-69
2022/08/23 07:40:06;;;;;;;;;;;;;;;23.76;24.11;95629.16;4994451;28;19948;-67
2022/08/23 07:42:31;;;;;;;;;;;;;;;23.34;25.11;95628.84;4993377;28;20378;-67
2022/08/23 07:44:56;;;;;;;;;;;;;;;22.65;25.27;95629.31;4991563;28;19936;-67
2022/08/23 07:47:21;;;;;;;;;;;;;;;22.74;25.67;95629.66;4993709;28;20013;-69
2022/08/23 07:49:47;;;;;;;;;;;;;;;22.74;25.22;95639.72;4992208;28;19926;-70
2022/08/23 07:52:12;;;;;;;;;;;;;;;23.19;25.10;95643.13;4996879;28;20530;-70
2022/08/23 07:54:37;;;;;;;;;;;;;;;23.34;24.28;95653.28;4991752;28;19928;-70
2022/08/23 07:57:03;;;;;;;;;;;;;;;23.48;23.67;95650.94;4992295;28;20013;-70
2022/08/23 07:59:28;;;;;;;;;;;;;;;22.58;25.14;95658.53;4992566;28;19918;-70
2022/08/23 08:01:53;;;;;;;;;;;;;;;22.76;26.05;95648.41;4992449;28;19929;-70
2022/08/23 08:04:19;;;;;;;;;;;;;;;23.37;24.52;95660.09;4996392;28;20028;-69
2022/08/23 08:06:46;;;;;;;;;;;;;;;23.05;25.39;95659.81;4992658;28;19976;-69
2022/08/23 08:09:12;;;;;;;;;;;;;;;23.21;25.31;95659.16;4995488;28;20379;-69
2022/08/23 08:11:38;;;;;;;;;;;;;;;23.40;24.82;95657.69;4995311;28;19929;-69
2022/08/23 08:14:06;;;;;;;;;;;;;;;23.50;25.02;95656.13;4993036;28;19956;-70
2022/08/23 08:16:41;;;;;;;;;;;;;;;23.74;24.48;95661.19;4995595;28;20337;-70
2022/08/23 08:19:07;;;;;;;;;;;;;;;23.96;24.30;95662.94;4997975;28;20052;-71
2022/08/23 08:21:33;;;;;;;;;;;;;;;23.23;25.07;95662.41;4993128;28;19932;-70
2022/08/23 08:23:58;;;;;;;;;;;;;;;24.13;23.96;95665.47;4996708;28;19943;-70
2022/08/23 08:26:24;;;;;;;;;;;;;;;24.69;23.45;95664.06;4993712;28;19930;-70
2022/08/23 08:28:49;;;;;;;;;;;;;;;24.83;22.83;95664.38;4999219;28;20011;-70
2022/08/23 08:31:14;;;;;;;;;;;;;;;23.88;24.51;95662.38;4997577;28;20201;-70
2022/08/23 08:33:39;;;;;;;;;;;;;;;24.43;23.85;95662.09;4990827;28;19925;-70
2022/08/23 08:36:05;;;;;;;;;;;;;;;24.75;23.57;95662.19;4994420;28;20296;-70
2022/08/23 08:38:30;;;;;;;;;;;;;;;25.18;22.41;95660.06;4995197;28;20032;-70
2022/08/23 08:41:00;;;;;;;;;;;;;;;24.98;22.74;95668.25;4983946;28;19928;-70
2022/08/23 08:43:25;;;;;;;;;;;;;;;24.71;22.94;95670.03;4996125;28;19932;-70
2022/08/23 08:46:10;;;;;;;;;;;;;;;24.62;23.26;95667.06;4995743;28;20302;-70
2022/08/23 08:48:42;;;;;;;;;;;;;;;25.08;22.40;95676.41;5000594;28;19921;-70
2022/08/23 08:51:33;;;;;;;;;;;;;;;24.88;22.92;95677.19;4979440;28;19925;-70
2022/08/23 08:53:58;;;;;;;;;;;;;;;25.05;23.04;95672.31;4991299;28;19943;-70
2022/08/23 08:56:25;;;;;;;;;;;;;;;25.37;21.98;95669.59;4997296;28;19922;-70
2022/08/23 08:58:51;;;;;;;;;;;;;;;25.73;22.43;95667.69;4985322;28;19944;-70
2022/08/23 09:01:17;;;;;;;;;;;;;;;25.88;22.27;95667.94;4979477;28;20106;-70
2022/08/23 09:03:42;;;;;;;;;;;;;;;26.13;20.61;95672.53;4985305;28;19917;-70
2022/08/23 09:06:26;;;;;;;;;;;;;;;25.83;20.98;95669.59;4994788;28;19929;-70
2022/08/23 09:09:07;;;;;;;;;;;;;;;25.90;21.22;95671.22;4994734;28;20537;-70
2022/08/23 09:11:33;;;;;;;;;;;;;;;24.87;21.36;95676.34;4998745;28;19930;-70
2022/08/23 09:14:03;;;;;;;;;;;;;;;23.55;23.75;95678.69;5000812;28;19925;-70
2022/08/23 09:16:38;;;;;;;;;;;;;;;20.99;27.47;95673.03;4974899;28;19972;-70
2022/08/23 09:19:03;;;;;;;;;;;;;;;23.14;25.63;95670.22;4987657;28;19918;-70
2022/08/23 09:21:32;;;;;;;;;;;;;;;24.91;23.01;95663.06;4999541;28;19917;-70
2022/08/23 09:23:57;;;;;;;;;;;;;;;25.31;22.45;95661.44;4981244;28;19925;-70
2022/08/23 09:26:24;;;;;;;;;;;;;;;26.06;21.51;95669.28;5002634;28;19925;-70
2022/08/23 09:28:53;;;;;;;;;;;;;;;26.30;21.82;95666.75;4997431;28;20226;-70
2022/08/23 09:31:37;;;;;;;;;;;;;;;26.95;19.98;95662.31;4993661;28;19921;-70
2022/08/23 09:34:02;;;;;;;;;;;;;;;27.23;19.84;95659.97;4997636;28;19922;-70
2022/08/23 09:36:30;;;;;;;;;;;;;;;27.53;19.28;95662.72;4994213;28;19944;-70
2022/08/23 09:38:57;;;;;;;;;;;;;;;27.90;18.75;95661.28;4997619;28;19925;-70
2022/08/23 09:41:24;;;;;;;;;;;;;;;26.46;19.71;95664.78;5001654;28;19961;-70
2022/08/23 09:43:49;;;;;;;;;;;;;;;26.01;19.96;95666.53;4995652;28;19953;-69
2022/08/23 09:46:24;;;;;;;;;;;;;;;25.84;19.93;95667.69;4990755;28;19942;-70
2022/08/23 09:48:53;;;;;;;;;;;;;;;26.76;19.18;95667.66;4997529;28;20012;-69
2022/08/23 09:51:23;;;;;;;;;;;;;;;27.03;20.03;95665.56;4999113;28;19922;-70
2022/08/23 09:54:02;;;;;;;;;;;;;;;27.59;19.39;95672.50;4973236;28;20024;-69
2022/08/23 09:56:27;;;;;;;;;;;;;;;26.88;19.10;95657.19;4975423;28;19961;-70
2022/08/23 09:58:53;;;;;;;;;;;;;;;27.13;19.60;95668.25;4995573;28;20376;-70
2022/08/23 10:01:29;;;;;;;;;;;;;;;28.07;18.44;95667.41;4999321;28;19926;-70
2022/08/23 10:04:14;;;;;;;;;;;;;;;28.06;19.41;95674.78;4983159;28;20374;-70
2022/08/23 10:06:40;;;;;;;;;;;;;;;28.54;17.35;95671.25;4995650;28;19929;-70
2022/08/23 10:09:06;;;;;;;;;;;;;;;26.52;18.47;95667.47;4995882;28;20032;-69
2022/08/23 10:11:39;;;;;;;;;;;;;;;27.31;18.50;95663.19;5001186;28;20040;-68
2022/08/23 10:14:04;;;;;;;;;;;;;;;28.59;17.26;95669.53;4976072;28;20024;-68
2022/08/23 10:16:56;;;;;;;;;;;;;;;28.08;17.59;95667.13;5001021;28;20016;-68
2022/08/23 10:19:22;;;;;;;;;;;;;;;28.51;17.85;95663.63;4990389;28;19917;-67
2022/08/23 10:21:47;;;;;;;;;;;;;;;28.44;17.11;95671.38;4996000;28;19944;-68
2022/08/23 10:24:21;;;;;;;;;;;;;;;28.99;17.37;95656.41;4998537;28;20396;-68
2022/08/23 10:29:35;;;;;;;;;;;;;;;29.15;16.52;95664.38;4997969;28;19921;-68
2022/08/23 10:29:48;;;;;;;;;;;;;;;29.20;17.60;95661.59;4998677;28;19925;-68
2022/08/23 10:32:34;;;;;;;;;;;;;;;29.32;16.71;95655.63;4977544;28;19960;-68
2022/08/23 10:34:59;;;;;;;;;;;;;;;29.42;17.27;95657.41;4976151;28;19922;-68
2022/08/23 10:37:32;;;;;;;;;;;;;;;29.86;16.97;95652.53;4983525;28;20382;-68
2022/08/23 10:39:57;;;;;;;;;;;;;;;30.26;16.66;95652.06;4994073;28;19924;-70
2022/08/23 10:42:31;;;;;;;;;;;;;;;30.61;16.13;95653.53;4999094;28;19917;-70
2022/08/23 10:45:02;;;;;;;;;;;;;;;30.63;15.27;95654.88;4998288;28;19937;-70
2022/08/23 10:47:40;;;;;;;;;;;;;;;31.27;15.29;95657.88;4997277;28;20294;-70
2022/08/23 10:50:06;;;;;;;;;;;;;;;30.40;14.88;95660.28;4999809;28;19922;-70
2022/08/23 10:52:33;;;;;;;;;;;;;;;30.58;15.01;95655.78;4979834;28;19978;-69
2022/08/23 10:54:59;;;;;;;;;;;;;;;28.72;17.80;95641.44;4987491;28;19918;-70
2022/08/23 10:57:34;;;;;;;;;;;;;;;28.97;16.34;95652.31;4978231;28;20425;-69
2022/08/23 11:00:14;;;;;;;;;;;;;;;29.74;15.46;95653.00;4978930;28;19957;-70
2022/08/23 11:02:41;;;;;;;;;;;;;;;30.28;15.27;95652.56;4991745;28;19937;-70
2022/08/23 11:05:17;;;;;;;;;;;;;;;30.26;15.32;95646.59;4995689;28;19968;-70
2022/08/23 11:07:43;;;;;;;;;;;;;;;27.11;18.29;95651.31;4993366;28;19924;-70
2022/08/23 11:10:15;;;;;;;;;;;;;;;28.54;17.56;95649.34;4982206;28;19929;-70
2022/08/23 11:12:51;;;;;;;;;;;;;;;29.58;15.16;95643.41;4983679;28;20363;-70
2022/08/23 11:15:27;;;;;;;;;;;;;;;29.78;15.92;95647.75;4984252;28;20037;-70
2022/08/23 11:17:54;;;;;;;;;;;;;;;29.71;17.40;95641.84;4981549;28;20428;-70
2022/08/23 11:20:38;;;;;;;;;;;;;;;30.23;17.40;95647.19;5001310;28;20421;-70
2022/08/23 11:23:06;;;;;;;;;;;;;;;30.51;16.17;95643.56;4996125;28;19963;-70
2022/08/23 11:25:31;;;;;;;;;;;;;;;30.92;16.53;95652.88;4998984;28;19918;-68
2022/08/23 11:28:15;;;;;;;;;;;;;;;31.20;16.17;95641.81;5000388;28;20134;-68
2022/08/23 11:30:44;;;;;;;;;;;;;;;31.63;15.63;95650.69;4994448;28;19965;-68
2022/08/23 11:33:15;;;;;;;;;;;;;;;31.59;15.94;95645.78;4989818;28;19929;-68
2022/08/23 11:35:42;;;;;;;;;;;;;;;32.26;14.29;95649.81;4999501;28;20374;-68
2022/08/23 11:38:07;;;;;;;;;;;;;;;32.40;13.81;95645.00;4999587;28;19987;-68
2022/08/23 11:40:37;;;;;;;;;;;;;;;32.51;12.86;95648.25;4994474;28;20833;-68
2022/08/23 11:43:05;;;;;;;;;;;;;;;32.85;14.33;95654.16;4999778;28;19917;-68
2022/08/23 11:45:36;;;;;;;;;;;;;;;32.79;14.01;95647.97;4997031;28;19965;-68
2022/08/23 11:48:21;;;;;;;;;;;;;;;31.48;13.32;95645.22;4993219;28;20458;-68
2022/08/23 11:50:49;;;;;;;;;;;;;;;32.92;13.65;95648.16;4981410;28;19922;-68
2022/08/23 11:53:21;;;;;;;;;;;;;;;32.69;13.71;95640.06;4994637;28;19933;-68
2022/08/23 11:55:59;;;;;;;;;;;;;;;33.30;12.88;95641.19;4996486;28;20033;-67
2022/08/23 11:58:42;;;;;;;;;;;;;;;34.11;11.12;95647.00;4993141;28;20147;-67
2022/08/23 12:01:08;;;;;;;;;;;;;;;33.06;11.89;95642.53;4995311;28;19925;-67
2022/08/23 12:03:35;;;;;;;;;;;;;;;30.91;13.59;95634.75;4995340;28;20343;-67
2022/08/23 12:06:03;;;;;;;;;;;;;;;32.98;13.39;95635.84;4978734;28;19963;-67
2022/08/23 12:08:30;;;;;;;;;;;;;;;32.88;13.12;95643.31;4997731;28;19922;-67
2022/08/23 12:10:55;;;;;;;;;;;;;;;33.52;13.37;95638.22;4977752;28;19917;-67
2022/08/23 12:13:24;;;;;;;;;;;;;;;33.99;11.38;95633.09;4998852;28;19921;-66
2022/08/23 12:16:08;;;;;;;;;;;;;;;34.72;11.38;95633.16;5001199;28;20345;-67
2022/08/23 12:18:35;;;;;;;;;;;;;;;31.63;13.26;95634.97;5001948;28;19967;-67
2022/08/23 12:21:01;;;;;;;;;;;;;;;32.85;12.18;95643.94;4999054;28;19926;-67
2022/08/23 12:23:26;;;;;;;;;;;;;;;32.55;12.88;95629.19;4996793;28;20315;-67
2022/08/23 12:26:05;;;;;;;;;;;;;;;32.77;12.93;95635.66;4998022;28;19937;-66
2022/08/23 12:28:31;;;;;;;;;;;;;;;33.36;12.29;95624.16;4984531;28;19939;-67
2022/08/23 12:30:58;;;;;;;;;;;;;;;33.19;12.74;95624.97;4993944;28;19918;-67
2022/08/23 12:33:29;;;;;;;;;;;;;;;33.57;11.80;95626.22;4973973;28;19922;-67
2022/08/23 12:36:03;;;;;;;;;;;;;;;34.08;11.77;95628.31;4990069;28;19922;-67
2022/08/23 12:38:46;;;;;;;;;;;;;;;34.56;11.17;95625.47;4993424;28;19921;-67
2022/08/23 12:41:15;;;;;;;;;;;;;;;34.47;11.77;95627.50;4972669;28;19933;-67
2022/08/23 12:43:40;;;;;;;;;;;;;;;34.21;11.31;95628.41;4973941;28;19927;-68
2022/08/23 12:46:05;;;;;;;;;;;;;;;34.37;11.33;95626.75;4980539;28;19929;-67
2022/08/23 12:48:32;;;;;;;;;;;;;;;34.75;10.62;95624.19;4999266;28;19949;-67
2022/08/23 12:51:01;;;;;;;;;;;;;;;34.09;11.03;95621.66;4989965;28;19914;-67
2022/08/23 12:53:28;;;;;;;;;;;;;;;33.76;11.99;95631.38;4994853;28;20114;-67
2022/08/23 12:55:57;;;;;;;;;;;;;;;32.35;12.70;95631.34;4994718;28;20008;-67
2022/08/23 12:58:26;;;;;;;;;;;;;;;32.03;13.10;95625.91;4990642;28;20249;-67